Aérodrome :
LOGIN :

S'inscrire | Disclaimer

   EN    FR    IT 

 










Légende :    VFR   VFR Marginal   IFR   IFR Intensif   IFR Très Intensif
Visi : 
Plafond : 
>= 8 km
>= 3000ft
5 à 8 km
1000 à 3000 ft
1500m à 5 km
500 à 1000 ft
800 à 1500m
200 à 500 ft
< 800m
< 200 ft
Symboles :   Orages  Brouillard  Fortes neiges  Fortes précipitations  Vent > 20 kt
SIGMETs :   Divers  Orages  Givrage  Turbulence  Onde Orograph.  Cendres Volcan.







- Altitude de l'aérodrome : 142 ft
- Code IATA : ALC


LEAL - Alicante

DERNIER METAR :
  • 142100Z 05006KT 020V080 9999 BKN050 18/13 Q1019 NOSIG

METARs EXPIRÉS :
  • 142030Z 05008KT CAVOK 19/13 Q1019 NOSIG
  • 142000Z 05009KT CAVOK 19/14 Q1019 NOSIG
  • 141930Z 06009KT CAVOK 19/14 Q1019 NOSIG
  • 141900Z 07011KT 040V100 CAVOK 19/15 Q1019 NOSIG
  • 141830Z 06008KT CAVOK 19/14 Q1019 NOSIG

TAF TAF LEAL
Valide du 14 à 18h jusqu'au 15 à 18h UTC


141700Z 1418/1518 07014KT 9999 FEW020 TX20/1512Z TN13/1506Z
TEMPO 1419/1518 4000 SHRA FEW010TCU BKN020
PROB30
TEMPO 1420/1518 4000 TSRA FEW015CB BKN020
Pas de NOTAMs connus pour ce terrain.
3 SIGMETs publiés pour la FIR Barcelona (LECB) :
 
Orages noyés dans la masse
LECB SIGMET 3 VALID 142103/150100 LEVA
LECB BARCELONA FIR/UIR EMBD TS OBS AT 2103Z WI N3908 W00053 - N3913 E00013 - N3826 E00026 - N3817 W00045 - N3908 W00053 TOP FL330 STNR NC=
Orages noyés dans la masse
LECB SIGMET 2 VALID 142019/142200 LEVA
LECB BARCELONA FIR/UIR EMBD TS OBS AT 2019Z WI N3616 W00127 - N3645 W00018 - N3723 W00030 - N3711 W00130 - N3616 W00127 TOP FL360 STNR NC=
Orages noyés dans la masse
LECB SIGMET 1 VALID 141950/142100 LEVA
LECB BARCELONA FIR/UIR EMBD TS OBS AT 1950Z WI N3917 W00020 - N3853 W00026 - N3854 E00021 - N3917 W00020 TOP FL270 STNR NC=



MET'MAP, la Météo Aéronautique d'un coup d'oeil ! - Copyright ORBIFLY Décembre 2007 - Disclaimer

ORBIFLY MET'MAP TEAM :

Programmation & Développement : Alexandra Zaïnal
Conception & Développement : Baudouin d'Aumeries
Co-Programmation & Développement : Marc-Olivier Méhu
Soutien technique & logistique : Manuel Goepfert

Contact : metmap@orbifly.com




SOURCES & CREDITS :

   NOAA